createdAt,value
2019-06-10T00:02:05.867Z,8.47
2019-06-10T00:04:36.039Z,11.87
2019-06-10T00:07:07.207Z,8.70
2019-06-10T00:09:37.077Z,6.97
2019-06-10T00:12:08.119Z,12.97
2019-06-10T00:14:38.456Z,6.83
2019-06-10T00:17:08.093Z,7.33
2019-06-10T00:19:37.598Z,9.23
2019-06-10T00:22:08.402Z,11.90
2019-06-10T00:24:40.790Z,9.47
2019-06-10T00:27:11.861Z,7.43
2019-06-10T00:29:40.994Z,9.77
2019-06-10T00:32:13.109Z,6.90
2019-06-10T00:34:42.060Z,8.77
2019-06-10T00:37:14.581Z,7.87
2019-06-10T00:39:43.168Z,7.30
2019-06-10T00:42:15.112Z,8.77
2019-06-10T00:44:43.768Z,7.87
2019-06-10T00:47:15.091Z,9.67
2019-06-10T00:49:44.476Z,10.53
2019-06-10T00:52:14.154Z,11.37
2019-06-10T00:54:43.856Z,8.70
2019-06-10T00:57:13.839Z,10.40
2019-06-10T00:59:43.383Z,11.10
2019-06-10T01:02:14.453Z,10.77
2019-06-10T01:04:44.842Z,11.50
2019-06-10T01:07:14.839Z,7.50
2019-06-10T01:09:44.962Z,11.63
2019-06-10T01:12:15.006Z,8.83
2019-06-10T01:14:44.680Z,12.20
2019-06-10T01:17:15.463Z,8.23
2019-06-10T01:19:45.347Z,8.17
2019-06-10T01:22:15.909Z,10.57
2019-06-10T01:24:46.059Z,11.70
2019-06-10T01:27:15.569Z,10.17
2019-06-10T01:29:44.975Z,8.70
2019-06-10T01:32:15.084Z,6.97
2019-06-10T01:34:44.629Z,6.93
2019-06-10T01:37:14.742Z,10.70
2019-06-10T01:39:45.636Z,12.50
2019-06-10T01:42:15.889Z,10.80
2019-06-10T01:44:46.212Z,7.97
2019-06-10T01:47:16.143Z,8.33
2019-06-10T01:49:46.955Z,8.00
2019-06-10T01:52:16.978Z,6.40
2019-06-10T01:54:47.570Z,8.67
2019-06-10T01:57:18.309Z,11.33
2019-06-10T01:59:48.011Z,12.13
2019-06-10T02:02:21.123Z,12.33
2019-06-10T02:04:51.714Z,11.70
2019-06-10T02:07:23.092Z,9.30
2019-06-10T02:09:52.544Z,8.30
2019-06-10T02:12:24.182Z,12.10
2019-06-10T02:14:53.206Z,8.27
2019-06-10T02:17:23.970Z,10.23
2019-06-10T02:19:54.012Z,9.70
2019-06-10T02:22:24.430Z,14.30
2019-06-10T02:24:54.209Z,10.90
2019-06-10T02:27:23.986Z,12.47
2019-06-10T02:29:53.479Z,11.83
2019-06-10T02:32:31.991Z,13.27
2019-06-10T02:35:07.751Z,10.63
2019-06-10T02:37:32.646Z,15.73
2019-06-10T02:39:56.731Z,13.13
2019-06-10T02:42:30.711Z,15.73
2019-06-10T02:44:59.044Z,13.43
2019-06-10T02:47:36.333Z,16.60
2019-06-10T02:50:07.015Z,12.27
2019-06-10T02:52:34.316Z,13.20
2019-06-10T02:55:04.316Z,14.20
2019-06-10T02:57:39.747Z,13.40
2019-06-10T03:00:20.691Z,14.60
2019-06-10T03:02:45.193Z,12.33
2019-06-10T03:05:17.044Z,14.07
2019-06-10T03:07:45.738Z,11.87
2019-06-10T03:10:16.410Z,14.90
2019-06-10T03:12:46.626Z,14.77
2019-06-10T03:15:16.216Z,11.73
2019-06-10T03:17:45.625Z,14.07
2019-06-10T03:20:15.995Z,15.33
2019-06-10T03:22:45.558Z,16.67
2019-06-10T03:25:16.358Z,16.83
2019-06-10T03:27:45.881Z,16.07
2019-06-10T03:30:23.710Z,11.53
2019-06-10T03:32:47.724Z,14.10
2019-06-10T03:35:17.506Z,12.83
2019-06-10T03:37:47.264Z,15.10
2019-06-10T03:40:18.494Z,14.00
2019-06-10T03:42:48.553Z,21.10
2019-06-10T03:45:19.526Z,16.13
2019-06-10T03:47:48.954Z,18.20
2019-06-10T03:50:19.239Z,17.97
2019-06-10T03:52:48.913Z,18.17
2019-06-10T03:55:19.316Z,14.23
2019-06-10T03:57:48.945Z,17.07
2019-06-10T04:00:19.822Z,18.80
2019-06-10T04:02:49.572Z,18.77
2019-06-10T04:05:19.457Z,21.00
2019-06-10T04:07:49.174Z,16.20
2019-06-10T04:10:19.560Z,16.20
2019-06-10T04:12:49.197Z,15.17
2019-06-10T04:15:19.728Z,18.03
2019-06-10T04:17:49.378Z,19.70
2019-06-10T04:20:19.753Z,17.60
2019-06-10T04:22:49.547Z,19.50
2019-06-10T04:25:19.910Z,14.70
2019-06-10T04:27:49.650Z,15.93
2019-06-10T04:30:23.201Z,16.57
2019-06-10T04:32:52.939Z,15.07
2019-06-10T04:35:24.389Z,20.37
2019-06-10T04:37:53.937Z,17.87
2019-06-10T04:40:26.288Z,13.27
2019-06-10T04:42:54.948Z,15.37
2019-06-10T04:45:26.236Z,18.03
2019-06-10T04:47:55.541Z,17.13
2019-06-10T04:50:35.420Z,23.30
2019-06-10T04:52:56.176Z,21.07
2019-06-10T04:55:26.542Z,22.20
2019-06-10T04:57:56.872Z,21.67
2019-06-10T05:00:27.619Z,17.27
2019-06-10T05:02:58.239Z,15.30
2019-06-10T05:05:28.854Z,19.37
2019-06-10T05:07:58.919Z,17.57
2019-06-10T05:10:29.827Z,15.97
2019-06-10T05:12:59.461Z,18.83
2019-06-10T05:15:31.530Z,18.43
2019-06-10T05:18:00.134Z,22.97
2019-06-10T05:20:48.523Z,23.57
2019-06-10T05:23:02.305Z,20.03
2019-06-10T05:25:32.746Z,22.37
2019-06-10T05:28:02.925Z,18.97
2019-06-10T05:30:34.096Z,15.80
2019-06-10T05:33:03.744Z,20.83
2019-06-10T05:35:33.949Z,14.90
2019-06-10T05:38:03.615Z,17.07
2019-06-10T05:40:34.259Z,16.70
2019-06-10T05:43:03.993Z,16.93
2019-06-10T05:45:35.159Z,20.67
2019-06-10T05:48:04.697Z,16.60
2019-06-10T05:50:34.995Z,20.07
2019-06-10T05:53:04.694Z,15.70
2019-06-10T05:55:35.838Z,26.67
2019-06-10T05:58:05.291Z,16.57
2019-06-10T06:00:35.540Z,19.63
2019-06-10T06:03:05.307Z,15.23
2019-06-10T06:05:36.156Z,16.43
2019-06-10T06:08:08.723Z,16.83
2019-06-10T06:10:37.817Z,11.30
2019-06-10T06:13:07.528Z,15.17
2019-06-10T06:15:38.085Z,20.17
2019-06-10T06:18:10.835Z,13.83
2019-06-10T06:20:39.279Z,18.40
2019-06-10T06:23:09.230Z,18.10
2019-06-10T06:25:42.992Z,17.27
2019-06-10T06:28:12.421Z,18.97
2019-06-10T06:30:42.308Z,19.07
2019-06-10T06:33:13.598Z,13.50
2019-06-10T06:35:46.590Z,13.80
2019-06-10T06:38:14.908Z,14.63
2019-06-10T06:40:44.409Z,14.90
2019-06-10T06:43:13.866Z,21.13
2019-06-10T06:45:43.607Z,15.67
2019-06-10T06:48:13.094Z,14.73
2019-06-10T06:51:00.233Z,16.23
2019-06-10T06:53:27.152Z,12.63
2019-06-10T06:55:45.248Z,13.20
2019-06-10T06:58:14.654Z,13.73
2019-06-10T07:01:00.577Z,10.50
2019-06-10T07:03:15.233Z,22.03
2019-06-10T07:05:46.299Z,15.30
2019-06-10T07:08:17.585Z,14.27
2019-06-10T07:10:47.714Z,16.80
2019-06-10T07:13:17.266Z,11.67
2019-06-10T07:15:47.961Z,14.37
2019-06-10T07:18:17.483Z,13.03
2019-06-10T07:20:46.997Z,11.07
2019-06-10T07:23:16.498Z,11.13
2019-06-10T07:25:47.466Z,10.83
2019-06-10T07:28:17.275Z,9.17
2019-06-10T07:30:51.770Z,9.50
2019-06-10T07:33:17.955Z,13.43
2019-06-10T07:35:47.436Z,13.07
2019-06-10T07:38:16.901Z,13.87
2019-06-10T07:40:46.397Z,10.77
2019-06-10T07:43:15.808Z,10.13
2019-06-10T07:45:47.909Z,13.33
2019-06-10T07:48:16.679Z,11.10
2019-06-10T07:50:46.617Z,11.77
2019-06-10T07:53:16.101Z,8.47
2019-06-10T07:55:46.571Z,12.27
2019-06-10T07:58:16.444Z,12.17
2019-06-10T08:00:48.367Z,11.57
2019-06-10T08:03:17.089Z,13.30
2019-06-10T08:05:46.783Z,12.43
2019-06-10T08:08:16.408Z,11.30
2019-06-10T08:10:46.337Z,13.03
2019-06-10T08:13:17.385Z,10.07
2019-06-10T08:15:48.258Z,10.27
2019-06-10T08:18:17.900Z,12.20
2019-06-10T08:20:48.106Z,13.73
2019-06-10T08:23:23.322Z,12.03
2019-06-10T08:25:56.886Z,13.43
2019-06-10T08:28:23.649Z,16.13
2019-06-10T08:30:53.398Z,12.43
2019-06-10T08:33:23.155Z,21.00
2019-06-10T08:35:59.499Z,11.83
2019-06-10T08:38:24.010Z,12.50
2019-06-10T08:40:53.562Z,11.87
2019-06-10T08:43:23.079Z,10.87
2019-06-10T08:45:53.045Z,11.73
2019-06-10T08:48:23.037Z,11.60
2019-06-10T08:50:53.877Z,10.23
2019-06-10T08:53:23.306Z,12.47
2019-06-10T08:55:53.806Z,11.17
2019-06-10T08:58:23.407Z,13.07
2019-06-10T09:00:53.807Z,14.80
2019-06-10T09:03:23.780Z,11.90
2019-06-10T09:05:56.241Z,13.10
2019-06-10T09:08:25.867Z,14.07
2019-06-10T09:10:55.701Z,8.60
2019-06-10T09:13:25.416Z,8.67
2019-06-10T09:16:09.675Z,13.03
2019-06-10T09:18:26.045Z,11.77
2019-06-10T09:20:56.253Z,12.67
2019-06-10T09:23:26.368Z,14.53
2019-06-10T09:25:57.528Z,12.03
2019-06-10T09:28:27.260Z,11.83
2019-06-10T09:30:59.422Z,12.53
2019-06-10T09:33:28.273Z,11.07
2019-06-10T09:35:58.140Z,13.83
2019-06-10T09:38:27.920Z,16.70
2019-06-10T09:41:01.655Z,18.87
2019-06-10T09:43:28.680Z,15.57
2019-06-10T09:45:58.751Z,14.70
2019-06-10T09:48:28.267Z,21.37
2019-06-10T09:50:59.114Z,18.20
2019-06-10T09:53:35.007Z,14.40
2019-06-10T09:56:00.297Z,12.77
2019-06-10T09:58:32.684Z,15.40
2019-06-10T10:01:03.243Z,14.53
2019-06-10T10:03:33.352Z,15.00
2019-06-10T10:06:14.534Z,18.97
2019-06-10T10:08:35.330Z,13.27
2019-06-10T10:11:04.913Z,19.20
2019-06-10T10:13:35.273Z,17.53
2019-06-10T10:16:05.691Z,19.77
2019-06-10T10:18:35.407Z,20.30
2019-06-10T10:21:05.357Z,24.40
2019-06-10T10:23:50.082Z,30.83
2019-06-10T10:26:06.096Z,22.57
2019-06-10T10:28:35.886Z,27.07
2019-06-10T10:31:05.302Z,26.40
2019-06-10T10:33:34.735Z,30.27
2019-06-10T10:36:04.213Z,26.90
2019-06-10T10:38:34.844Z,31.37
2019-06-10T10:41:06.691Z,25.47
2019-06-10T10:43:37.809Z,27.40
2019-06-10T10:46:07.424Z,29.40
2019-06-10T10:48:36.933Z,29.37
2019-06-10T10:51:06.507Z,28.57
2019-06-10T10:53:35.947Z,27.67
2019-06-10T10:56:05.838Z,25.80
2019-06-10T10:58:35.298Z,24.60
2019-06-10T11:01:05.283Z,25.53
2019-06-10T11:03:35.012Z,27.40
2019-06-10T11:06:04.525Z,26.70
2019-06-10T11:08:34.049Z,26.00
2019-06-10T11:11:05.247Z,25.43
2019-06-10T11:13:37.894Z,22.00
2019-06-10T11:16:07.707Z,19.37
2019-06-10T11:18:37.206Z,21.47
2019-06-10T11:21:06.692Z,17.43
2019-06-10T11:23:36.303Z,20.90
2019-06-10T11:26:06.078Z,21.17
2019-06-10T11:28:35.588Z,16.67
2019-06-10T11:31:05.890Z,21.00
2019-06-10T11:33:35.387Z,18.77
2019-06-10T11:36:05.211Z,15.77
2019-06-10T11:38:34.658Z,13.97
2019-06-10T11:41:04.665Z,12.60
2019-06-10T11:43:34.182Z,18.30
2019-06-10T11:46:07.517Z,17.63
2019-06-10T11:48:34.980Z,15.13
2019-06-10T11:51:05.028Z,18.80
2019-06-10T11:53:34.954Z,18.23
2019-06-10T11:56:04.836Z,16.43
2019-06-10T11:58:34.242Z,14.77
2019-06-10T12:01:04.150Z,19.13
2019-06-10T12:03:33.843Z,15.90
2019-06-10T12:06:05.258Z,15.03
2019-06-10T12:08:34.514Z,21.40
2019-06-10T12:11:04.010Z,19.93
2019-06-10T12:13:34.645Z,14.07
2019-06-10T12:17:05.145Z,13.30
2019-06-10T12:18:35.578Z,16.83
2019-06-10T12:21:05.181Z,21.17
2019-06-10T12:23:34.652Z,23.07
2019-06-10T12:26:05.183Z,20.93
2019-06-10T12:28:35.131Z,16.00
2019-06-10T12:31:07.332Z,16.23
2019-06-10T12:33:35.855Z,17.47
2019-06-10T12:36:07.197Z,19.90
2019-06-10T12:38:37.051Z,15.43
2019-06-10T12:41:09.715Z,17.43
2019-06-10T12:51:26.540Z,14.20
2019-06-10T12:53:57.327Z,14.80
2019-06-10T12:56:26.926Z,14.90
2019-06-10T13:01:44.783Z,14.57
2019-06-10T13:04:13.940Z,16.20
2019-06-10T13:06:47.510Z,15.63
2019-06-10T13:09:19.274Z,12.40
2019-06-10T13:11:48.745Z,13.23
2019-06-10T13:14:18.508Z,16.93
2019-06-10T13:16:48.079Z,16.93
2019-06-10T13:19:17.513Z,16.40
2019-06-10T13:21:46.944Z,12.97
2019-06-10T13:24:16.484Z,14.30
2019-06-10T13:26:45.905Z,15.13
2019-06-10T13:29:17.670Z,18.23
2019-06-10T13:31:46.493Z,15.90
2019-06-10T13:34:15.924Z,17.30
2019-06-10T13:36:45.381Z,20.10
2019-06-10T13:39:14.878Z,17.90
2019-06-10T13:41:44.351Z,19.80
2019-06-10T13:44:16.598Z,13.50
2019-06-10T13:46:44.925Z,19.23
2019-06-10T13:49:15.481Z,17.23
2019-06-10T13:51:45.262Z,18.23
2019-06-10T13:54:14.726Z,18.70
2019-06-10T13:56:47.549Z,18.80
2019-06-10T13:59:15.506Z,22.73
2019-06-10T14:01:45.300Z,23.33
2019-06-10T14:04:21.435Z,25.57
2019-06-10T14:06:50.368Z,22.53
2019-06-10T14:09:17.501Z,28.90
2019-06-10T14:11:46.990Z,21.87
2019-06-10T14:14:18.025Z,28.37
2019-06-10T14:16:47.557Z,29.90
2019-06-10T14:19:17.015Z,33.17
2019-06-10T14:21:46.429Z,24.80
2019-06-10T14:24:16.428Z,23.13
2019-06-10T14:26:45.932Z,24.90
2019-06-10T14:29:16.870Z,22.77
2019-06-10T14:31:47.747Z,16.30
2019-06-10T14:34:18.713Z,15.77
2019-06-10T14:36:48.820Z,13.90
2019-06-10T14:39:18.248Z,16.10
2019-06-10T14:41:47.713Z,14.87
2019-06-10T14:44:18.008Z,17.87
2019-06-10T14:46:47.723Z,13.80
2019-06-10T14:49:17.145Z,13.77
2019-06-10T14:51:46.566Z,15.17
2019-06-10T14:54:18.158Z,18.10
2019-06-10T14:56:53.662Z,14.90
2019-06-10T14:59:18.422Z,14.93
2019-06-10T15:01:47.928Z,16.57
2019-06-10T15:04:18.296Z,19.93
2019-06-10T15:06:48.752Z,18.50
2019-06-10T15:09:19.788Z,22.13
2019-06-10T15:11:49.411Z,19.57
2019-06-10T15:14:20.297Z,20.83
2019-06-10T15:16:53.158Z,18.77
2019-06-10T15:19:28.001Z,22.33
2019-06-10T15:21:52.505Z,22.27
2019-06-10T15:24:23.763Z,24.20
2019-06-10T15:27:08.405Z,24.63
2019-06-10T15:29:24.235Z,25.97
2019-06-10T15:32:09.275Z,25.20
2019-06-10T15:34:24.927Z,23.23
2019-06-10T15:36:54.361Z,26.37
2019-06-10T15:39:24.276Z,25.37
2019-06-10T15:41:53.908Z,26.90
2019-06-10T15:44:44.178Z,27.70
2019-06-10T15:46:54.702Z,26.40
2019-06-10T15:49:26.104Z,27.90
2019-06-10T15:51:55.278Z,26.80
2019-06-10T15:54:25.483Z,23.30
2019-06-10T15:56:56.590Z,24.43
2019-06-10T15:59:26.371Z,27.50
2019-06-10T16:01:55.786Z,30.20
2019-06-10T16:04:26.465Z,26.43
2019-06-10T16:06:56.459Z,28.67
2019-06-10T16:09:25.874Z,30.93
2019-06-10T16:11:55.395Z,29.90
2019-06-10T16:14:25.471Z,29.63
2019-06-10T16:16:55.215Z,27.03
2019-06-10T16:19:24.641Z,29.93
2019-06-10T16:21:54.069Z,29.37
2019-06-10T16:24:25.900Z,32.07
2019-06-10T16:26:54.656Z,29.30
2019-06-10T16:29:25.815Z,32.20
2019-06-10T16:31:55.399Z,35.57
2019-06-10T16:34:28.851Z,34.57
2019-06-10T16:36:56.285Z,35.93
2019-06-10T16:39:26.865Z,38.47
2019-06-10T16:41:56.527Z,38.83
2019-06-10T16:44:28.140Z,38.93
2019-06-10T16:46:57.399Z,38.13
2019-06-10T16:49:26.961Z,39.90
2019-06-10T16:51:56.802Z,34.30
2019-06-10T16:54:27.138Z,35.27
2019-06-10T16:56:56.798Z,34.00
2019-06-10T16:59:27.605Z,32.97
2019-06-10T17:01:57.497Z,34.47
2019-06-10T17:04:27.888Z,34.17
2019-06-10T17:06:57.603Z,31.07
2019-06-10T17:09:27.894Z,33.00
2019-06-10T17:11:58.619Z,40.10
2019-06-10T17:14:28.902Z,33.00
2019-06-10T17:16:58.685Z,38.37
2019-06-10T17:19:47.441Z,34.47
2019-06-10T17:22:16.912Z,28.00
2019-06-10T17:24:47.138Z,30.03
2019-06-10T17:27:16.620Z,26.00
2019-06-10T17:29:46.251Z,22.03
2019-06-10T17:32:15.672Z,22.37
2019-06-10T17:34:45.262Z,56.23
2019-06-10T17:37:14.762Z,18.20
2019-06-10T17:39:44.176Z,19.77
2019-06-10T17:42:13.702Z,16.30
2019-06-10T17:44:43.109Z,13.13
2019-06-10T17:47:13.253Z,11.90
2019-06-10T17:49:42.945Z,9.10
2019-06-10T17:52:13.388Z,14.83
2019-06-10T17:54:42.808Z,10.00
2019-06-10T17:57:12.786Z,10.57
2019-06-10T17:59:42.570Z,8.40
2019-06-10T18:02:12.403Z,13.37
2019-06-10T18:04:42.195Z,7.73
2019-06-10T18:07:13.015Z,9.20
2019-06-10T18:09:42.589Z,9.30
2019-06-10T18:12:12.965Z,10.87
2019-06-10T18:14:43.043Z,10.03
2019-06-10T18:17:12.913Z,7.23
2019-06-10T18:19:43.291Z,8.13
2019-06-10T18:22:12.930Z,8.43
2019-06-10T18:24:44.000Z,6.00
2019-06-10T18:27:13.406Z,4.33
2019-06-10T18:29:43.483Z,5.07
2019-06-10T18:32:12.909Z,5.13
2019-06-10T18:34:42.745Z,3.63
2019-06-10T18:37:12.315Z,4.50
2019-06-10T18:39:43.085Z,5.87
2019-06-10T18:42:12.810Z,6.17
2019-06-10T18:44:42.225Z,6.83
2019-06-10T18:47:13.450Z,3.00
2019-06-10T18:49:43.353Z,5.50
2019-06-10T18:52:12.924Z,5.20
2019-06-10T18:54:43.510Z,5.23
2019-06-10T18:57:13.270Z,3.47
2019-06-10T18:59:42.886Z,5.57
2019-06-10T19:02:12.361Z,5.23
2019-06-10T19:04:43.496Z,4.73
2019-06-10T19:07:13.262Z,4.60
2019-06-10T19:09:47.847Z,5.10
2019-06-10T19:12:14.175Z,4.53
2019-06-10T19:14:43.715Z,4.73
2019-06-10T19:17:17.389Z,4.50
2019-06-10T19:19:46.059Z,4.87
2019-06-10T19:22:15.537Z,5.87
2019-06-10T19:24:45.048Z,6.60
2019-06-10T19:27:14.849Z,5.60
2019-06-10T19:29:50.852Z,4.57
2019-06-10T19:32:15.570Z,5.53
2019-06-10T19:34:48.363Z,4.10
2019-06-10T19:37:17.983Z,6.30
2019-06-10T19:39:51.507Z,4.47
2019-06-10T19:42:19.236Z,6.17
2019-06-10T19:44:48.725Z,4.87
2019-06-10T19:47:18.198Z,4.30
2019-06-10T19:49:47.771Z,4.90
2019-06-10T19:52:18.177Z,6.03
2019-06-10T19:54:47.934Z,4.70
2019-06-10T19:57:17.442Z,6.27
2019-06-10T20:00:03.670Z,8.80
2019-06-10T20:02:18.100Z,7.07
2019-06-10T20:04:47.519Z,5.60
2019-06-10T20:07:17.069Z,5.93
2019-06-10T20:09:46.614Z,7.73
2019-06-10T20:12:16.114Z,8.23
2019-06-10T20:14:46.704Z,8.00
2019-06-10T20:17:16.797Z,9.07
2019-06-10T20:19:46.655Z,8.30
2019-06-10T20:22:16.249Z,7.77
2019-06-10T20:24:46.854Z,8.83
2019-06-10T20:27:17.119Z,8.07
2019-06-10T20:29:59.727Z,7.93
2019-06-10T20:32:17.757Z,8.93
2019-06-10T20:34:47.288Z,9.10
2019-06-10T20:37:16.847Z,8.67
2019-06-10T20:39:47.670Z,10.10
2019-06-10T20:42:17.608Z,8.57
2019-06-10T20:44:47.848Z,10.87
2019-06-10T20:47:18.370Z,9.63
2019-06-10T20:49:51.403Z,11.33
2019-06-10T20:52:19.089Z,13.27
2019-06-10T20:54:49.960Z,13.73
2019-06-10T20:57:19.551Z,12.27
2019-06-10T20:59:49.852Z,15.03
2019-06-10T21:02:19.499Z,14.20
2019-06-10T21:04:50.071Z,16.13
2019-06-10T21:07:23.023Z,14.70
2019-06-10T21:09:54.321Z,18.33
2019-06-10T21:12:23.742Z,13.43
2019-06-10T21:14:53.270Z,11.43
2019-06-10T21:17:22.928Z,9.17
2019-06-10T21:19:53.738Z,17.00
2019-06-10T21:22:23.444Z,7.57
2019-06-10T21:24:53.535Z,7.93
2019-06-10T21:27:24.000Z,5.83
2019-06-10T21:29:54.642Z,5.83
2019-06-10T21:32:24.364Z,5.73
2019-06-10T21:34:53.941Z,3.30
2019-06-10T21:37:23.503Z,8.37
2019-06-10T21:39:55.523Z,5.67
2019-06-10T21:42:24.102Z,3.67
2019-06-10T21:44:53.546Z,6.47
2019-06-10T21:47:23.612Z,10.40
2019-06-10T21:49:54.893Z,8.50
2019-06-10T21:52:24.543Z,5.07
2019-06-10T21:54:53.969Z,3.87
2019-06-10T21:57:23.483Z,4.57
2019-06-10T21:59:54.025Z,3.63
2019-06-10T22:02:24.200Z,5.27
2019-06-10T22:04:55.518Z,4.17
2019-06-10T22:07:25.099Z,3.40
2019-06-10T22:09:56.226Z,3.50
2019-06-10T22:12:25.816Z,3.10
2019-06-10T22:14:55.267Z,1.90
2019-06-10T22:17:24.672Z,2.87
2019-06-10T22:19:56.322Z,5.40
2019-06-10T22:22:25.230Z,5.37
2019-06-10T22:24:56.346Z,6.33
2019-06-10T22:27:25.822Z,4.10
2019-06-10T22:29:57.017Z,2.00
2019-06-10T22:32:26.453Z,3.13
2019-06-10T22:34:57.146Z,1.93
2019-06-10T22:37:26.725Z,5.43
2019-06-10T22:39:57.846Z,4.33
2019-06-10T22:42:27.377Z,5.67
2019-06-10T22:44:57.946Z,5.67
2019-06-10T22:47:27.567Z,5.03
2019-06-10T22:49:58.482Z,7.83
2019-06-10T22:52:28.499Z,6.13
2019-06-10T22:54:58.642Z,3.97
2019-06-10T22:57:28.336Z,6.07
2019-06-10T22:59:59.276Z,5.17
2019-06-10T23:02:29.410Z,4.73
2019-06-10T23:05:01.361Z,3.70
2019-06-10T23:07:29.982Z,4.87
2019-06-10T23:09:59.409Z,6.07
2019-06-10T23:12:28.841Z,5.10
2019-06-10T23:14:59.310Z,2.37
2019-06-10T23:17:28.789Z,4.57
2019-06-10T23:19:59.637Z,3.27
2019-06-10T23:22:29.402Z,7.43
2019-06-10T23:25:00.488Z,5.20
2019-06-10T23:27:29.996Z,4.13
2019-06-10T23:30:00.868Z,12.93
2019-06-10T23:32:32.704Z,6.07
2019-06-10T23:35:01.715Z,8.23
2019-06-10T23:37:32.311Z,4.07
2019-06-10T23:40:04.300Z,7.33
2019-06-10T23:42:33.224Z,6.60
2019-06-10T23:45:04.983Z,6.13
2019-06-10T23:47:34.197Z,9.10
2019-06-10T23:50:04.966Z,7.67
2019-06-10T23:52:34.824Z,6.87
2019-06-10T23:55:07.422Z,7.07
2019-06-10T23:57:36.877Z,5.90
